首页
METAR-TAF:

METAR-TAF

机场 :

Florence, 南卡罗来纳州, 美国

纬度: 34-11-16N, 经度: 079-43-51W, 海拔: 45米

当前天气观测

该预报发布于49分钟前的22:53 UTC
风速3节,风向西北
温度 17°C
湿度 42%
气压 1012 hPa
能見度: 16.1公里
天空无云

METAR: KFLO 172253Z 32003KT 10SM CLR 17/04 A2987 RMK AO2 SLP111 T01670044

时间: 19:42 (23:42 UTC)

预报

该预报发布于22分钟前的23:20 UTC
预报有效从18日的 00点(UTC)到 18日的 24点(UTC)
风速2节,风向北转西北
能見度: 10公里
天空无云
从 18日的 1300点(UTC)
风速6节,风向
能見度: 10公里
天空无云

TAF: KFLO 172320Z 1800/1824 33002KT P6SM SKC FM181300 01006KT P6SM SKC

超过4000个机场的气象观测和天气预报(METAR&TAF报告)。

可查询的气象台以黄色和红色小点在地图上表示。

将鼠标移到小点上方,可查看气象台名称。

然后点击查看天气观测和预报。

如需切换地图:点击带黑十字的绿色按钮放大地图;点击带横线的绿色按钮缩小地图;或者点击绿色箭头查看邻近地区的地图。


METAR-TAF: